sensor_id;sensor_type;location;lat;lon;timestamp;P1;durP1;ratioP1;P2;durP2;ratioP2
65759;SDS011;52496;51.082;5.066;2023-05-07T00:01:46;10.23;;;8.82;;
65759;SDS011;52496;51.082;5.066;2023-05-07T00:04:16;14.20;;;9.43;;
65759;SDS011;52496;51.082;5.066;2023-05-07T00:06:47;14.35;;;9.63;;
65759;SDS011;52496;51.082;5.066;2023-05-07T00:09:18;12.27;;;8.43;;
65759;SDS011;52496;51.082;5.066;2023-05-07T00:11:48;12.68;;;9.27;;
65759;SDS011;52496;51.082;5.066;2023-05-07T00:14:19;14.35;;;9.25;;
65759;SDS011;52496;51.082;5.066;2023-05-07T00:16:50;12.80;;;8.40;;
65759;SDS011;52496;51.082;5.066;2023-05-07T00:19:20;11.60;;;8.73;;
65759;SDS011;52496;51.082;5.066;2023-05-07T00:21:51;11.73;;;8.82;;
65759;SDS011;52496;51.082;5.066;2023-05-07T00:24:24;14.05;;;9.05;;
65759;SDS011;52496;51.082;5.066;2023-05-07T00:26:54;16.80;;;10.27;;
65759;SDS011;52496;51.082;5.066;2023-05-07T00:29:25;14.82;;;9.13;;
65759;SDS011;52496;51.082;5.066;2023-05-07T00:31:55;15.70;;;10.63;;
65759;SDS011;52496;51.082;5.066;2023-05-07T00:34:26;11.93;;;8.77;;
65759;SDS011;52496;51.082;5.066;2023-05-07T00:36:56;13.60;;;9.70;;
65759;SDS011;52496;51.082;5.066;2023-05-07T00:39:27;14.80;;;10.50;;
65759;SDS011;52496;51.082;5.066;2023-05-07T00:41:57;15.25;;;10.32;;
65759;SDS011;52496;51.082;5.066;2023-05-07T00:44:30;15.75;;;9.73;;
65759;SDS011;52496;51.082;5.066;2023-05-07T00:47:01;12.88;;;8.30;;
65759;SDS011;52496;51.082;5.066;2023-05-07T00:49:42;14.13;;;9.07;;
65759;SDS011;52496;51.082;5.066;2023-05-07T00:52:15;16.33;;;10.48;;
65759;SDS011;52496;51.082;5.066;2023-05-07T00:54:47;15.20;;;10.52;;
65759;SDS011;52496;51.082;5.066;2023-05-07T00:57:17;16.52;;;11.77;;
65759;SDS011;52496;51.082;5.066;2023-05-07T00:59:50;17.85;;;11.35;;
65759;SDS011;52496;51.082;5.066;2023-05-07T01:02:22;16.70;;;11.05;;
65759;SDS011;52496;51.082;5.066;2023-05-07T01:04:52;17.65;;;11.57;;
65759;SDS011;52496;51.082;5.066;2023-05-07T01:07:22;17.70;;;11.30;;
65759;SDS011;52496;51.082;5.066;2023-05-07T01:09:53;17.00;;;10.82;;
65759;SDS011;52496;51.082;5.066;2023-05-07T01:12:24;17.38;;;10.88;;
65759;SDS011;52496;51.082;5.066;2023-05-07T01:14:55;15.90;;;10.07;;
65759;SDS011;52496;51.082;5.066;2023-05-07T01:17:26;14.18;;;9.93;;
65759;SDS011;52496;51.082;5.066;2023-05-07T01:19:57;15.55;;;10.75;;
65759;SDS011;52496;51.082;5.066;2023-05-07T01:22:29;17.80;;;11.32;;
65759;SDS011;52496;51.082;5.066;2023-05-07T01:25:05;21.35;;;11.60;;
65759;SDS011;52496;51.082;5.066;2023-05-07T01:27:37;14.63;;;10.52;;
65759;SDS011;52496;51.082;5.066;2023-05-07T01:30:08;16.33;;;10.65;;
65759;SDS011;52496;51.082;5.066;2023-05-07T01:32:48;13.48;;;10.02;;
65759;SDS011;52496;51.082;5.066;2023-05-07T01:35:30;14.10;;;10.55;;
65759;SDS011;52496;51.082;5.066;2023-05-07T01:38:07;16.83;;;11.90;;
65759;SDS011;52496;51.082;5.066;2023-05-07T01:40:38;19.45;;;11.43;;
65759;SDS011;52496;51.082;5.066;2023-05-07T01:43:09;18.05;;;10.77;;
65759;SDS011;52496;51.082;5.066;2023-05-07T01:45:40;16.10;;;12.00;;
65759;SDS011;52496;51.082;5.066;2023-05-07T01:48:12;17.88;;;10.95;;
65759;SDS011;52496;51.082;5.066;2023-05-07T01:50:44;17.73;;;11.93;;
65759;SDS011;52496;51.082;5.066;2023-05-07T01:53:15;18.67;;;12.68;;
65759;SDS011;52496;51.082;5.066;2023-05-07T01:55:46;20.45;;;12.13;;
65759;SDS011;52496;51.082;5.066;2023-05-07T01:58:16;17.92;;;12.15;;
65759;SDS011;52496;51.082;5.066;2023-05-07T02:00:47;17.50;;;11.07;;
65759;SDS011;52496;51.082;5.066;2023-05-07T02:03:17;19.35;;;12.60;;
65759;SDS011;52496;51.082;5.066;2023-05-07T02:05:48;19.38;;;13.05;;
65759;SDS011;52496;51.082;5.066;2023-05-07T02:08:19;26.38;;;13.38;;
65759;SDS011;52496;51.082;5.066;2023-05-07T02:10:49;19.35;;;12.98;;
65759;SDS011;52496;51.082;5.066;2023-05-07T02:13:21;17.60;;;12.23;;
65759;SDS011;52496;51.082;5.066;2023-05-07T02:15:52;19.27;;;13.40;;
65759;SDS011;52496;51.082;5.066;2023-05-07T02:18:23;19.00;;;14.52;;
65759;SDS011;52496;51.082;5.066;2023-05-07T02:20:54;23.65;;;15.45;;
65759;SDS011;52496;51.082;5.066;2023-05-07T02:23:24;21.45;;;14.75;;
65759;SDS011;52496;51.082;5.066;2023-05-07T02:25:55;17.27;;;13.50;;
65759;SDS011;52496;51.082;5.066;2023-05-07T02:28:25;19.60;;;13.98;;
65759;SDS011;52496;51.082;5.066;2023-05-07T02:30:56;19.85;;;14.13;;
65759;SDS011;52496;51.082;5.066;2023-05-07T02:33:28;19.75;;;13.82;;
65759;SDS011;52496;51.082;5.066;2023-05-07T02:36:07;22.23;;;14.88;;
65759;SDS011;52496;51.082;5.066;2023-05-07T02:38:41;18.30;;;14.15;;
65759;SDS011;52496;51.082;5.066;2023-05-07T02:41:11;17.80;;;13.50;;
65759;SDS011;52496;51.082;5.066;2023-05-07T02:43:42;21.70;;;15.05;;
65759;SDS011;52496;51.082;5.066;2023-05-07T02:46:12;19.88;;;13.25;;
65759;SDS011;52496;51.082;5.066;2023-05-07T02:48:43;18.92;;;14.07;;
65759;SDS011;52496;51.082;5.066;2023-05-07T02:51:14;18.77;;;13.88;;
65759;SDS011;52496;51.082;5.066;2023-05-07T02:53:44;18.15;;;12.85;;
65759;SDS011;52496;51.082;5.066;2023-05-07T02:56:15;16.95;;;13.27;;
65759;SDS011;52496;51.082;5.066;2023-05-07T02:58:45;22.55;;;15.35;;
65759;SDS011;52496;51.082;5.066;2023-05-07T03:01:16;29.30;;;16.92;;
65759;SDS011;52496;51.082;5.066;2023-05-07T03:03:46;20.60;;;15.07;;
65759;SDS011;52496;51.082;5.066;2023-05-07T03:06:17;25.50;;;15.25;;
65759;SDS011;52496;51.082;5.066;2023-05-07T03:08:47;23.55;;;14.80;;
65759;SDS011;52496;51.082;5.066;2023-05-07T03:11:18;22.92;;;15.25;;
65759;SDS011;52496;51.082;5.066;2023-05-07T03:13:52;21.23;;;15.80;;
65759;SDS011;52496;51.082;5.066;2023-05-07T03:16:22;22.00;;;14.95;;
65759;SDS011;52496;51.082;5.066;2023-05-07T03:18:53;24.88;;;16.35;;
65759;SDS011;52496;51.082;5.066;2023-05-07T03:21:23;25.65;;;16.48;;
65759;SDS011;52496;51.082;5.066;2023-05-07T03:23:56;22.23;;;16.45;;
65759;SDS011;52496;51.082;5.066;2023-05-07T03:26:27;24.42;;;15.27;;
65759;SDS011;52496;51.082;5.066;2023-05-07T03:28:57;25.58;;;15.93;;
65759;SDS011;52496;51.082;5.066;2023-05-07T03:31:28;23.10;;;16.63;;
65759;SDS011;52496;51.082;5.066;2023-05-07T03:33:58;28.05;;;16.70;;
65759;SDS011;52496;51.082;5.066;2023-05-07T03:36:29;23.63;;;16.23;;
65759;SDS011;52496;51.082;5.066;2023-05-07T03:39:00;25.67;;;17.80;;
65759;SDS011;52496;51.082;5.066;2023-05-07T03:41:32;22.88;;;17.13;;
65759;SDS011;52496;51.082;5.066;2023-05-07T03:46:52;27.70;;;17.92;;
65759;SDS011;52496;51.082;5.066;2023-05-07T03:49:25;30.63;;;19.58;;
65759;SDS011;52496;51.082;5.066;2023-05-07T03:51:55;25.10;;;18.05;;
65759;SDS011;52496;51.082;5.066;2023-05-07T03:54:27;30.98;;;19.42;;
65759;SDS011;52496;51.082;5.066;2023-05-07T03:56:58;26.13;;;18.42;;
65759;SDS011;52496;51.082;5.066;2023-05-07T03:59:28;30.35;;;19.70;;
65759;SDS011;52496;51.082;5.066;2023-05-07T04:01:59;22.40;;;17.05;;
65759;SDS011;52496;51.082;5.066;2023-05-07T04:04:30;22.33;;;15.90;;
65759;SDS011;52496;51.082;5.066;2023-05-07T04:07:02;24.10;;;14.60;;
65759;SDS011;52496;51.082;5.066;2023-05-07T04:09:34;19.80;;;13.80;;
65759;SDS011;52496;51.082;5.066;2023-05-07T04:12:04;18.83;;;12.57;;
65759;SDS011;52496;51.082;5.066;2023-05-07T04:14:35;19.08;;;13.02;;
65759;SDS011;52496;51.082;5.066;2023-05-07T04:17:05;17.45;;;12.23;;
65759;SDS011;52496;51.082;5.066;2023-05-07T04:19:37;18.27;;;12.85;;
65759;SDS011;52496;51.082;5.066;2023-05-07T04:22:09;16.73;;;11.57;;
65759;SDS011;52496;51.082;5.066;2023-05-07T04:24:40;17.00;;;11.82;;
65759;SDS011;52496;51.082;5.066;2023-05-07T04:27:10;16.00;;;11.88;;
65759;SDS011;52496;51.082;5.066;2023-05-07T04:29:40;19.42;;;13.10;;
65759;SDS011;52496;51.082;5.066;2023-05-07T04:32:12;20.25;;;12.07;;
65759;SDS011;52496;51.082;5.066;2023-05-07T04:34:43;15.52;;;11.48;;
65759;SDS011;52496;51.082;5.066;2023-05-07T04:37:13;16.10;;;11.50;;
65759;SDS011;52496;51.082;5.066;2023-05-07T04:39:44;15.60;;;11.10;;
65759;SDS011;52496;51.082;5.066;2023-05-07T04:42:15;16.25;;;11.32;;
65759;SDS011;52496;51.082;5.066;2023-05-07T04:44:46;15.15;;;10.65;;
65759;SDS011;52496;51.082;5.066;2023-05-07T04:47:16;13.98;;;9.48;;
65759;SDS011;52496;51.082;5.066;2023-05-07T04:49:47;14.18;;;10.43;;
65759;SDS011;52496;51.082;5.066;2023-05-07T04:52:18;13.73;;;9.75;;
65759;SDS011;52496;51.082;5.066;2023-05-07T04:54:48;16.02;;;10.00;;
65759;SDS011;52496;51.082;5.066;2023-05-07T04:57:19;15.25;;;11.68;;
65759;SDS011;52496;51.082;5.066;2023-05-07T04:59:49;12.60;;;10.05;;
65759;SDS011;52496;51.082;5.066;2023-05-07T05:02:20;16.15;;;10.65;;
65759;SDS011;52496;51.082;5.066;2023-05-07T05:04:50;13.48;;;9.45;;
65759;SDS011;52496;51.082;5.066;2023-05-07T05:07:21;13.63;;;9.68;;
65759;SDS011;52496;51.082;5.066;2023-05-07T05:09:51;13.98;;;9.48;;
65759;SDS011;52496;51.082;5.066;2023-05-07T05:12:22;19.77;;;11.55;;
65759;SDS011;52496;51.082;5.066;2023-05-07T05:14:52;15.98;;;10.85;;
65759;SDS011;52496;51.082;5.066;2023-05-07T05:17:23;15.65;;;10.82;;
65759;SDS011;52496;51.082;5.066;2023-05-07T05:19:53;14.18;;;9.88;;
65759;SDS011;52496;51.082;5.066;2023-05-07T05:22:24;15.23;;;10.75;;
65759;SDS011;52496;51.082;5.066;2023-05-07T05:24:55;15.57;;;11.02;;
65759;SDS011;52496;51.082;5.066;2023-05-07T05:27:26;15.38;;;10.35;;
65759;SDS011;52496;51.082;5.066;2023-05-07T05:29:56;14.27;;;10.30;;
65759;SDS011;52496;51.082;5.066;2023-05-07T05:32:30;14.82;;;11.57;;
65759;SDS011;52496;51.082;5.066;2023-05-07T05:35:01;12.80;;;9.40;;
65759;SDS011;52496;51.082;5.066;2023-05-07T05:37:31;14.13;;;9.88;;
65759;SDS011;52496;51.082;5.066;2023-05-07T05:40:02;14.20;;;10.23;;
65759;SDS011;52496;51.082;5.066;2023-05-07T05:42:33;13.23;;;9.35;;
65759;SDS011;52496;51.082;5.066;2023-05-07T05:45:04;12.70;;;8.98;;
65759;SDS011;52496;51.082;5.066;2023-05-07T05:47:34;12.35;;;8.75;;
65759;SDS011;52496;51.082;5.066;2023-05-07T05:50:05;15.20;;;9.65;;
65759;SDS011;52496;51.082;5.066;2023-05-07T05:52:38;13.85;;;9.70;;
65759;SDS011;52496;51.082;5.066;2023-05-07T05:55:08;13.68;;;9.65;;
65759;SDS011;52496;51.082;5.066;2023-05-07T05:57:39;11.88;;;8.77;;
65759;SDS011;52496;51.082;5.066;2023-05-07T06:00:13;12.35;;;9.00;;
65759;SDS011;52496;51.082;5.066;2023-05-07T06:02:43;12.70;;;8.70;;
65759;SDS011;52496;51.082;5.066;2023-05-07T06:05:14;13.20;;;9.18;;
65759;SDS011;52496;51.082;5.066;2023-05-07T06:07:45;15.02;;;9.95;;
65759;SDS011;52496;51.082;5.066;2023-05-07T06:10:15;12.07;;;8.25;;
65759;SDS011;52496;51.082;5.066;2023-05-07T06:12:46;10.65;;;7.85;;
65759;SDS011;52496;51.082;5.066;2023-05-07T06:15:16;15.05;;;7.95;;
65759;SDS011;52496;51.082;5.066;2023-05-07T06:17:47;13.45;;;7.78;;
65759;SDS011;52496;51.082;5.066;2023-05-07T06:20:19;12.25;;;7.72;;
65759;SDS011;52496;51.082;5.066;2023-05-07T06:22:49;12.50;;;8.02;;
65759;SDS011;52496;51.082;5.066;2023-05-07T06:25:20;11.88;;;8.38;;
65759;SDS011;52496;51.082;5.066;2023-05-07T06:27:50;14.93;;;9.32;;
65759;SDS011;52496;51.082;5.066;2023-05-07T06:30:21;10.77;;;7.88;;
65759;SDS011;52496;51.082;5.066;2023-05-07T06:32:52;11.60;;;8.27;;
65759;SDS011;52496;51.082;5.066;2023-05-07T06:35:23;13.73;;;8.52;;
65759;SDS011;52496;51.082;5.066;2023-05-07T06:37:53;10.80;;;8.32;;
65759;SDS011;52496;51.082;5.066;2023-05-07T06:40:24;14.88;;;9.00;;
65759;SDS011;52496;51.082;5.066;2023-05-07T06:42:54;12.23;;;8.30;;
65759;SDS011;52496;51.082;5.066;2023-05-07T06:45:25;12.27;;;8.30;;
65759;SDS011;52496;51.082;5.066;2023-05-07T06:47:55;12.43;;;7.93;;
65759;SDS011;52496;51.082;5.066;2023-05-07T06:50:26;14.63;;;8.88;;
65759;SDS011;52496;51.082;5.066;2023-05-07T06:52:57;13.48;;;7.97;;
65759;SDS011;52496;51.082;5.066;2023-05-07T06:55:27;9.85;;;7.65;;
65759;SDS011;52496;51.082;5.066;2023-05-07T06:57:58;11.02;;;7.82;;
65759;SDS011;52496;51.082;5.066;2023-05-07T07:00:31;10.82;;;7.68;;
65759;SDS011;52496;51.082;5.066;2023-05-07T07:03:02;11.73;;;7.43;;
65759;SDS011;52496;51.082;5.066;2023-05-07T07:05:32;15.90;;;9.23;;
65759;SDS011;52496;51.082;5.066;2023-05-07T07:08:03;11.23;;;8.05;;
65759;SDS011;52496;51.082;5.066;2023-05-07T07:10:34;12.15;;;8.05;;
65759;SDS011;52496;51.082;5.066;2023-05-07T07:13:04;12.45;;;8.80;;
65759;SDS011;52496;51.082;5.066;2023-05-07T07:15:35;14.40;;;8.40;;
65759;SDS011;52496;51.082;5.066;2023-05-07T07:18:06;14.18;;;9.30;;
65759;SDS011;52496;51.082;5.066;2023-05-07T07:20:37;11.50;;;7.85;;
65759;SDS011;52496;51.082;5.066;2023-05-07T07:23:07;9.70;;;7.13;;
65759;SDS011;52496;51.082;5.066;2023-05-07T07:25:38;11.77;;;9.00;;
65759;SDS011;52496;51.082;5.066;2023-05-07T07:28:08;9.90;;;7.03;;
65759;SDS011;52496;51.082;5.066;2023-05-07T07:30:40;11.73;;;8.07;;
65759;SDS011;52496;51.082;5.066;2023-05-07T07:33:11;9.93;;;7.20;;
65759;SDS011;52496;51.082;5.066;2023-05-07T07:35:41;12.98;;;7.72;;
65759;SDS011;52496;51.082;5.066;2023-05-07T07:38:12;10.70;;;7.65;;
65759;SDS011;52496;51.082;5.066;2023-05-07T07:40:43;10.85;;;7.53;;
65759;SDS011;52496;51.082;5.066;2023-05-07T07:43:14;11.35;;;7.57;;
65759;SDS011;52496;51.082;5.066;2023-05-07T07:45:44;11.48;;;8.02;;
65759;SDS011;52496;51.082;5.066;2023-05-07T07:48:16;11.27;;;6.85;;
65759;SDS011;52496;51.082;5.066;2023-05-07T07:50:48;11.57;;;7.55;;
65759;SDS011;52496;51.082;5.066;2023-05-07T07:53:21;12.05;;;8.30;;
65759;SDS011;52496;51.082;5.066;2023-05-07T07:55:51;11.02;;;7.10;;
65759;SDS011;52496;51.082;5.066;2023-05-07T07:58:22;10.48;;;7.30;;
65759;SDS011;52496;51.082;5.066;2023-05-07T08:00:53;10.75;;;7.57;;
65759;SDS011;52496;51.082;5.066;2023-05-07T08:03:26;12.82;;;8.18;;
65759;SDS011;52496;51.082;5.066;2023-05-07T08:05:56;13.15;;;7.72;;
65759;SDS011;52496;51.082;5.066;2023-05-07T08:08:27;10.88;;;7.60;;
65759;SDS011;52496;51.082;5.066;2023-05-07T08:10:58;11.20;;;7.60;;
65759;SDS011;52496;51.082;5.066;2023-05-07T08:13:28;10.73;;;8.10;;
65759;SDS011;52496;51.082;5.066;2023-05-07T08:15:59;9.25;;;7.00;;
65759;SDS011;52496;51.082;5.066;2023-05-07T08:18:29;14.27;;;7.55;;
65759;SDS011;52496;51.082;5.066;2023-05-07T08:21:00;9.52;;;7.40;;
65759;SDS011;52496;51.082;5.066;2023-05-07T08:23:31;10.00;;;7.10;;
65759;SDS011;52496;51.082;5.066;2023-05-07T08:28:35;10.10;;;7.50;;
65759;SDS011;52496;51.082;5.066;2023-05-07T08:31:05;12.98;;;7.10;;
65759;SDS011;52496;51.082;5.066;2023-05-07T08:33:36;12.07;;;7.88;;
65759;SDS011;52496;51.082;5.066;2023-05-07T08:36:08;10.65;;;6.90;;
65759;SDS011;52496;51.082;5.066;2023-05-07T08:38:38;9.73;;;6.88;;
65759;SDS011;52496;51.082;5.066;2023-05-07T08:41:10;15.65;;;7.45;;
65759;SDS011;52496;51.082;5.066;2023-05-07T08:43:41;12.40;;;6.47;;
65759;SDS011;52496;51.082;5.066;2023-05-07T08:46:18;11.18;;;6.63;;
65759;SDS011;52496;51.082;5.066;2023-05-07T08:48:50;9.77;;;6.80;;
65759;SDS011;52496;51.082;5.066;2023-05-07T08:51:22;10.43;;;6.63;;
65759;SDS011;52496;51.082;5.066;2023-05-07T08:53:52;11.85;;;7.72;;
65759;SDS011;52496;51.082;5.066;2023-05-07T08:56:23;13.27;;;6.43;;
65759;SDS011;52496;51.082;5.066;2023-05-07T08:58:53;10.57;;;6.80;;
65759;SDS011;52496;51.082;5.066;2023-05-07T09:01:28;13.68;;;7.40;;
65759;SDS011;52496;51.082;5.066;2023-05-07T09:03:59;9.80;;;7.43;;
65759;SDS011;52496;51.082;5.066;2023-05-07T09:06:29;8.60;;;6.72;;
65759;SDS011;52496;51.082;5.066;2023-05-07T09:09:00;10.18;;;7.38;;
65759;SDS011;52496;51.082;5.066;2023-05-07T09:11:31;9.98;;;6.95;;
65759;SDS011;52496;51.082;5.066;2023-05-07T09:14:02;11.95;;;7.40;;
65759;SDS011;52496;51.082;5.066;2023-05-07T09:16:32;9.93;;;6.82;;
65759;SDS011;52496;51.082;5.066;2023-05-07T09:19:03;12.68;;;7.32;;
65759;SDS011;52496;51.082;5.066;2023-05-07T09:21:33;12.77;;;7.53;;
65759;SDS011;52496;51.082;5.066;2023-05-07T09:24:04;12.93;;;8.27;;
65759;SDS011;52496;51.082;5.066;2023-05-07T09:26:35;11.18;;;7.25;;
65759;SDS011;52496;51.082;5.066;2023-05-07T09:29:07;13.25;;;8.25;;
65759;SDS011;52496;51.082;5.066;2023-05-07T09:31:40;11.77;;;8.15;;
65759;SDS011;52496;51.082;5.066;2023-05-07T09:34:11;11.65;;;7.43;;
65759;SDS011;52496;51.082;5.066;2023-05-07T09:36:41;12.30;;;7.53;;
65759;SDS011;52496;51.082;5.066;2023-05-07T09:39:12;13.13;;;7.95;;
65759;SDS011;52496;51.082;5.066;2023-05-07T09:41:44;12.15;;;7.78;;
65759;SDS011;52496;51.082;5.066;2023-05-07T09:44:15;11.88;;;8.73;;
65759;SDS011;52496;51.082;5.066;2023-05-07T09:46:47;11.57;;;8.32;;
65759;SDS011;52496;51.082;5.066;2023-05-07T09:49:23;16.52;;;8.68;;
65759;SDS011;52496;51.082;5.066;2023-05-07T09:51:55;15.68;;;8.60;;
65759;SDS011;52496;51.082;5.066;2023-05-07T09:54:26;13.00;;;8.38;;
65759;SDS011;52496;51.082;5.066;2023-05-07T09:57:01;14.82;;;9.43;;
65759;SDS011;52496;51.082;5.066;2023-05-07T09:59:35;12.25;;;9.27;;
65759;SDS011;52496;51.082;5.066;2023-05-07T10:02:08;13.00;;;8.38;;
65759;SDS011;52496;51.082;5.066;2023-05-07T10:04:40;12.88;;;8.57;;
65759;SDS011;52496;51.082;5.066;2023-05-07T10:07:10;15.57;;;8.95;;
65759;SDS011;52496;51.082;5.066;2023-05-07T10:09:41;11.75;;;8.70;;
65759;SDS011;52496;51.082;5.066;2023-05-07T10:12:14;13.95;;;8.80;;
65759;SDS011;52496;51.082;5.066;2023-05-07T10:14:45;10.63;;;8.32;;
65759;SDS011;52496;51.082;5.066;2023-05-07T10:17:18;13.98;;;8.90;;
65759;SDS011;52496;51.082;5.066;2023-05-07T10:19:50;12.05;;;7.88;;
65759;SDS011;52496;51.082;5.066;2023-05-07T10:22:23;14.43;;;8.93;;
65759;SDS011;52496;51.082;5.066;2023-05-07T10:24:56;13.80;;;8.63;;
65759;SDS011;52496;51.082;5.066;2023-05-07T10:27:31;13.32;;;8.68;;
65759;SDS011;52496;51.082;5.066;2023-05-07T10:30:07;10.20;;;7.63;;
65759;SDS011;52496;51.082;5.066;2023-05-07T10:32:49;15.10;;;8.50;;
65759;SDS011;52496;51.082;5.066;2023-05-07T10:35:27;15.48;;;8.50;;
65759;SDS011;52496;51.082;5.066;2023-05-07T10:38:02;12.95;;;7.35;;
65759;SDS011;52496;51.082;5.066;2023-05-07T10:40:33;15.65;;;8.30;;
65759;SDS011;52496;51.082;5.066;2023-05-07T10:43:05;11.43;;;7.50;;
65759;SDS011;52496;51.082;5.066;2023-05-07T10:45:36;14.50;;;8.05;;
65759;SDS011;52496;51.082;5.066;2023-05-07T10:50:45;11.50;;;7.72;;
65759;SDS011;52496;51.082;5.066;2023-05-07T10:55:49;13.18;;;7.15;;
65759;SDS011;52496;51.082;5.066;2023-05-07T11:01:01;10.52;;;7.07;;
65759;SDS011;52496;51.082;5.066;2023-05-07T11:03:32;15.45;;;7.80;;
65759;SDS011;52496;51.082;5.066;2023-05-07T11:06:14;13.88;;;7.30;;
65759;SDS011;52496;51.082;5.066;2023-05-07T11:17:11;13.27;;;7.43;;
65759;SDS011;52496;51.082;5.066;2023-05-07T11:19:51;12.95;;;7.07;;
65759;SDS011;52496;51.082;5.066;2023-05-07T11:25:01;10.73;;;7.13;;
65759;SDS011;52496;51.082;5.066;2023-05-07T11:27:33;10.88;;;6.18;;
65759;SDS011;52496;51.082;5.066;2023-05-07T11:30:04;9.85;;;6.40;;
65759;SDS011;52496;51.082;5.066;2023-05-07T11:32:35;10.25;;;6.50;;
65759;SDS011;52496;51.082;5.066;2023-05-07T11:35:05;10.30;;;6.82;;
65759;SDS011;52496;51.082;5.066;2023-05-07T11:37:36;12.82;;;7.00;;
65759;SDS011;52496;51.082;5.066;2023-05-07T11:40:08;14.48;;;7.00;;
65759;SDS011;52496;51.082;5.066;2023-05-07T11:42:40;13.63;;;6.72;;
65759;SDS011;52496;51.082;5.066;2023-05-07T11:45:14;12.02;;;6.00;;
65759;SDS011;52496;51.082;5.066;2023-05-07T11:47:54;12.40;;;6.22;;
65759;SDS011;52496;51.082;5.066;2023-05-07T11:50:25;14.30;;;6.45;;
65759;SDS011;52496;51.082;5.066;2023-05-07T11:52:56;12.85;;;7.07;;
65759;SDS011;52496;51.082;5.066;2023-05-07T11:55:27;17.67;;;7.45;;
65759;SDS011;52496;51.082;5.066;2023-05-07T11:57:57;13.93;;;7.32;;
65759;SDS011;52496;51.082;5.066;2023-05-07T12:00:29;14.57;;;7.57;;
65759;SDS011;52496;51.082;5.066;2023-05-07T12:03:03;11.90;;;6.75;;
65759;SDS011;52496;51.082;5.066;2023-05-07T12:05:35;10.15;;;6.00;;
65759;SDS011;52496;51.082;5.066;2023-05-07T12:08:07;10.40;;;5.60;;
65759;SDS011;52496;51.082;5.066;2023-05-07T12:10:40;12.63;;;5.82;;
65759;SDS011;52496;51.082;5.066;2023-05-07T12:13:17;11.88;;;5.70;;
65759;SDS011;52496;51.082;5.066;2023-05-07T12:15:55;13.45;;;6.05;;
65759;SDS011;52496;51.082;5.066;2023-05-07T12:18:26;9.40;;;6.18;;
65759;SDS011;52496;51.082;5.066;2023-05-07T12:20:57;10.27;;;6.32;;
65759;SDS011;52496;51.082;5.066;2023-05-07T12:23:29;12.05;;;6.25;;
65759;SDS011;52496;51.082;5.066;2023-05-07T12:26:00;10.15;;;6.20;;
65759;SDS011;52496;51.082;5.066;2023-05-07T12:28:31;12.23;;;7.07;;
65759;SDS011;52496;51.082;5.066;2023-05-07T12:31:06;10.70;;;6.30;;
65759;SDS011;52496;51.082;5.066;2023-05-07T12:33:37;11.52;;;6.32;;
65759;SDS011;52496;51.082;5.066;2023-05-07T12:36:11;9.98;;;6.20;;
65759;SDS011;52496;51.082;5.066;2023-05-07T12:38:42;9.30;;;6.50;;
65759;SDS011;52496;51.082;5.066;2023-05-07T12:41:13;15.15;;;6.53;;
65759;SDS011;52496;51.082;5.066;2023-05-07T12:43:44;9.32;;;6.15;;
65759;SDS011;52496;51.082;5.066;2023-05-07T12:46:15;11.55;;;6.22;;
65759;SDS011;52496;51.082;5.066;2023-05-07T12:48:48;11.00;;;6.70;;
65759;SDS011;52496;51.082;5.066;2023-05-07T12:51:19;10.95;;;6.43;;
65759;SDS011;52496;51.082;5.066;2023-05-07T12:53:50;11.02;;;5.45;;
65759;SDS011;52496;51.082;5.066;2023-05-07T12:56:26;11.57;;;6.15;;
65759;SDS011;52496;51.082;5.066;2023-05-07T12:59:01;11.70;;;5.53;;
65759;SDS011;52496;51.082;5.066;2023-05-07T13:01:33;11.05;;;5.72;;
65759;SDS011;52496;51.082;5.066;2023-05-07T13:04:04;9.55;;;4.88;;
65759;SDS011;52496;51.082;5.066;2023-05-07T13:06:35;10.43;;;5.15;;
65759;SDS011;52496;51.082;5.066;2023-05-07T13:09:06;10.18;;;5.03;;
65759;SDS011;52496;51.082;5.066;2023-05-07T13:11:36;12.85;;;4.63;;
65759;SDS011;52496;51.082;5.066;2023-05-07T13:14:07;7.25;;;4.35;;
65759;SDS011;52496;51.082;5.066;2023-05-07T13:16:38;7.82;;;4.13;;
65759;SDS011;52496;51.082;5.066;2023-05-07T13:19:08;10.98;;;4.60;;
65759;SDS011;52496;51.082;5.066;2023-05-07T13:21:39;7.00;;;4.35;;
65759;SDS011;52496;51.082;5.066;2023-05-07T13:24:09;11.07;;;4.60;;
65759;SDS011;52496;51.082;5.066;2023-05-07T13:26:40;8.57;;;4.40;;
65759;SDS011;52496;51.082;5.066;2023-05-07T13:29:10;8.18;;;4.45;;
65759;SDS011;52496;51.082;5.066;2023-05-07T13:31:41;9.60;;;4.80;;
65759;SDS011;52496;51.082;5.066;2023-05-07T13:34:14;8.07;;;5.10;;
65759;SDS011;52496;51.082;5.066;2023-05-07T13:36:44;10.30;;;6.10;;
65759;SDS011;52496;51.082;5.066;2023-05-07T13:39:18;11.48;;;6.07;;
65759;SDS011;52496;51.082;5.066;2023-05-07T13:41:49;12.25;;;6.55;;
65759;SDS011;52496;51.082;5.066;2023-05-07T13:44:20;12.68;;;6.30;;
65759;SDS011;52496;51.082;5.066;2023-05-07T13:46:50;10.85;;;6.65;;
65759;SDS011;52496;51.082;5.066;2023-05-07T13:49:21;10.15;;;5.93;;
65759;SDS011;52496;51.082;5.066;2023-05-07T13:51:51;10.23;;;6.70;;
65759;SDS011;52496;51.082;5.066;2023-05-07T13:54:22;12.02;;;6.57;;
65759;SDS011;52496;51.082;5.066;2023-05-07T13:56:55;10.73;;;6.65;;
65759;SDS011;52496;51.082;5.066;2023-05-07T13:59:26;10.90;;;7.07;;
65759;SDS011;52496;51.082;5.066;2023-05-07T14:01:56;10.80;;;6.50;;
65759;SDS011;52496;51.082;5.066;2023-05-07T14:04:27;9.05;;;5.78;;
65759;SDS011;52496;51.082;5.066;2023-05-07T14:06:57;8.43;;;5.85;;
65759;SDS011;52496;51.082;5.066;2023-05-07T14:09:28;11.57;;;7.00;;
65759;SDS011;52496;51.082;5.066;2023-05-07T14:11:58;12.23;;;6.82;;
65759;SDS011;52496;51.082;5.066;2023-05-07T14:14:29;8.68;;;5.78;;
65759;SDS011;52496;51.082;5.066;2023-05-07T14:17:00;12.57;;;7.03;;
65759;SDS011;52496;51.082;5.066;2023-05-07T14:19:31;12.00;;;7.18;;
65759;SDS011;52496;51.082;5.066;2023-05-07T14:22:01;11.15;;;6.25;;
65759;SDS011;52496;51.082;5.066;2023-05-07T14:24:32;10.00;;;6.25;;
65759;SDS011;52496;51.082;5.066;2023-05-07T14:27:03;11.32;;;6.95;;
65759;SDS011;52496;51.082;5.066;2023-05-07T14:29:35;10.30;;;6.18;;
65759;SDS011;52496;51.082;5.066;2023-05-07T14:32:06;9.27;;;5.40;;
65759;SDS011;52496;51.082;5.066;2023-05-07T14:34:37;8.25;;;4.95;;
65759;SDS011;52496;51.082;5.066;2023-05-07T14:37:07;10.70;;;4.05;;
65759;SDS011;52496;51.082;5.066;2023-05-07T14:39:38;9.27;;;5.10;;
65759;SDS011;52496;51.082;5.066;2023-05-07T14:42:08;9.93;;;5.57;;
65759;SDS011;52496;51.082;5.066;2023-05-07T14:44:39;9.93;;;5.60;;
65759;SDS011;52496;51.082;5.066;2023-05-07T14:47:11;8.93;;;5.15;;
65759;SDS011;52496;51.082;5.066;2023-05-07T14:49:42;9.95;;;4.93;;
65759;SDS011;52496;51.082;5.066;2023-05-07T14:52:12;9.15;;;4.82;;
65759;SDS011;52496;51.082;5.066;2023-05-07T14:54:43;8.13;;;4.72;;
65759;SDS011;52496;51.082;5.066;2023-05-07T14:57:13;8.13;;;4.70;;
65759;SDS011;52496;51.082;5.066;2023-05-07T14:59:46;11.88;;;4.60;;
65759;SDS011;52496;51.082;5.066;2023-05-07T15:02:17;7.50;;;4.80;;
65759;SDS011;52496;51.082;5.066;2023-05-07T15:04:48;12.45;;;4.43;;
65759;SDS011;52496;51.082;5.066;2023-05-07T15:07:18;9.48;;;4.38;;
65759;SDS011;52496;51.082;5.066;2023-05-07T15:09:49;8.20;;;4.32;;
65759;SDS011;52496;51.082;5.066;2023-05-07T15:12:21;7.68;;;4.20;;
65759;SDS011;52496;51.082;5.066;2023-05-07T15:14:51;8.20;;;4.10;;
65759;SDS011;52496;51.082;5.066;2023-05-07T15:17:22;6.47;;;3.80;;
65759;SDS011;52496;51.082;5.066;2023-05-07T15:19:53;7.72;;;4.35;;
65759;SDS011;52496;51.082;5.066;2023-05-07T15:22:23;7.20;;;4.30;;